sensor_id;sensor_type;location;lat;lon;timestamp;P1;durP1;ratioP1;P2;durP2;ratioP2
36797;SDS011;22748;8.426;99.512;2023-08-17T00:01:47;9.70;;;5.95;;
36797;SDS011;22748;8.426;99.512;2023-08-17T00:06:54;10.93;;;8.68;;
36797;SDS011;22748;8.426;99.512;2023-08-17T00:09:25;8.60;;;7.55;;
36797;SDS011;22748;8.426;99.512;2023-08-17T00:11:56;4.35;;;3.95;;
36797;SDS011;22748;8.426;99.512;2023-08-17T00:14:26;7.88;;;4.47;;
36797;SDS011;22748;8.426;99.512;2023-08-17T00:16:57;8.40;;;4.45;;
36797;SDS011;22748;8.426;99.512;2023-08-17T00:19:30;8.65;;;4.90;;
36797;SDS011;22748;8.426;99.512;2023-08-17T00:22:03;6.05;;;4.53;;
36797;SDS011;22748;8.426;99.512;2023-08-17T00:24:34;5.30;;;4.80;;
36797;SDS011;22748;8.426;99.512;2023-08-17T00:29:34;12.05;;;8.27;;
36797;SDS011;22748;8.426;99.512;2023-08-17T00:32:07;9.20;;;5.82;;
36797;SDS011;22748;8.426;99.512;2023-08-17T00:34:43;6.82;;;5.80;;
36797;SDS011;22748;8.426;99.512;2023-08-17T00:37:15;9.25;;;6.28;;
36797;SDS011;22748;8.426;99.512;2023-08-17T00:39:51;10.40;;;7.97;;
36797;SDS011;22748;8.426;99.512;2023-08-17T00:42:28;6.82;;;5.40;;
36797;SDS011;22748;8.426;99.512;2023-08-17T00:45:03;5.97;;;5.20;;
36797;SDS011;22748;8.426;99.512;2023-08-17T00:47:34;9.10;;;4.75;;
36797;SDS011;22748;8.426;99.512;2023-08-17T00:50:06;5.47;;;4.97;;
36797;SDS011;22748;8.426;99.512;2023-08-17T00:52:39;5.88;;;5.25;;
36797;SDS011;22748;8.426;99.512;2023-08-17T00:55:11;6.85;;;5.05;;
36797;SDS011;22748;8.426;99.512;2023-08-17T01:00:12;13.63;;;6.45;;
36797;SDS011;22748;8.426;99.512;2023-08-17T01:02:46;5.93;;;5.00;;
36797;SDS011;22748;8.426;99.512;2023-08-17T01:07:48;10.00;;;5.68;;
36797;SDS011;22748;8.426;99.512;2023-08-17T01:10:19;10.30;;;8.35;;
36797;SDS011;22748;8.426;99.512;2023-08-17T01:12:52;7.85;;;6.70;;
36797;SDS011;22748;8.426;99.512;2023-08-17T01:15:31;11.63;;;6.80;;
36797;SDS011;22748;8.426;99.512;2023-08-17T01:18:08;7.05;;;6.13;;
36797;SDS011;22748;8.426;99.512;2023-08-17T01:20:46;11.07;;;5.83;;
36797;SDS011;22748;8.426;99.512;2023-08-17T01:23:22;9.20;;;6.32;;
36797;SDS011;22748;8.426;99.512;2023-08-17T01:25:53;9.27;;;5.47;;
36797;SDS011;22748;8.426;99.512;2023-08-17T01:31:01;11.80;;;6.05;;
36797;SDS011;22748;8.426;99.512;2023-08-17T01:33:39;5.70;;;5.18;;
36797;SDS011;22748;8.426;99.512;2023-08-17T01:36:18;9.90;;;5.20;;
36797;SDS011;22748;8.426;99.512;2023-08-17T01:38:56;6.93;;;4.88;;
36797;SDS011;22748;8.426;99.512;2023-08-17T01:41:29;12.00;;;5.75;;
36797;SDS011;22748;8.426;99.512;2023-08-17T01:44:00;9.85;;;5.20;;
36797;SDS011;22748;8.426;99.512;2023-08-17T01:49:02;6.97;;;4.90;;
36797;SDS011;22748;8.426;99.512;2023-08-17T01:51:34;6.60;;;4.63;;
36797;SDS011;22748;8.426;99.512;2023-08-17T01:54:07;7.88;;;4.85;;
36797;SDS011;22748;8.426;99.512;2023-08-17T01:56:38;5.72;;;4.45;;
36797;SDS011;22748;8.426;99.512;2023-08-17T01:59:09;6.10;;;4.63;;
36797;SDS011;22748;8.426;99.512;2023-08-17T02:01:40;10.05;;;4.70;;
36797;SDS011;22748;8.426;99.512;2023-08-17T02:04:11;5.72;;;4.32;;
36797;SDS011;22748;8.426;99.512;2023-08-17T02:06:41;13.15;;;6.10;;
36797;SDS011;22748;8.426;99.512;2023-08-17T02:09:14;9.68;;;4.75;;
36797;SDS011;22748;8.426;99.512;2023-08-17T02:11:45;6.45;;;5.30;;
36797;SDS011;22748;8.426;99.512;2023-08-17T02:14:16;8.38;;;4.78;;
36797;SDS011;22748;8.426;99.512;2023-08-17T02:16:48;13.60;;;4.72;;
36797;SDS011;22748;8.426;99.512;2023-08-17T02:19:19;9.00;;;4.70;;
36797;SDS011;22748;8.426;99.512;2023-08-17T02:21:51;11.45;;;5.10;;
36797;SDS011;22748;8.426;99.512;2023-08-17T02:24:24;6.85;;;4.53;;
36797;SDS011;22748;8.426;99.512;2023-08-17T02:26:55;21.00;;;6.15;;
36797;SDS011;22748;8.426;99.512;2023-08-17T02:29:26;15.77;;;5.40;;
36797;SDS011;22748;8.426;99.512;2023-08-17T02:31:57;11.68;;;5.15;;
36797;SDS011;22748;8.426;99.512;2023-08-17T02:36:57;37.53;;;8.27;;
36797;SDS011;22748;8.426;99.512;2023-08-17T02:39:30;11.55;;;5.57;;
36797;SDS011;22748;8.426;99.512;2023-08-17T02:42:13;18.70;;;5.00;;
36797;SDS011;22748;8.426;99.512;2023-08-17T02:44:44;13.40;;;4.63;;
36797;SDS011;22748;8.426;99.512;2023-08-17T02:47:15;10.40;;;4.20;;
36797;SDS011;22748;8.426;99.512;2023-08-17T02:49:52;6.80;;;3.92;;
36797;SDS011;22748;8.426;99.512;2023-08-17T02:52:22;9.07;;;3.63;;
36797;SDS011;22748;8.426;99.512;2023-08-17T02:55:00;10.60;;;4.10;;
36797;SDS011;22748;8.426;99.512;2023-08-17T02:57:31;9.65;;;4.75;;
36797;SDS011;22748;8.426;99.512;2023-08-17T03:00:02;10.63;;;4.60;;
36797;SDS011;22748;8.426;99.512;2023-08-17T03:02:37;8.48;;;4.00;;
36797;SDS011;22748;8.426;99.512;2023-08-17T03:05:08;12.45;;;3.88;;
36797;SDS011;22748;8.426;99.512;2023-08-17T03:10:10;9.65;;;3.40;;
36797;SDS011;22748;8.426;99.512;2023-08-17T03:12:41;12.68;;;4.55;;
36797;SDS011;22748;8.426;99.512;2023-08-17T03:15:11;13.80;;;3.72;;
36797;SDS011;22748;8.426;99.512;2023-08-17T03:17:42;12.98;;;3.75;;
36797;SDS011;22748;8.426;99.512;2023-08-17T03:20:13;8.60;;;3.58;;
36797;SDS011;22748;8.426;99.512;2023-08-17T03:22:44;19.00;;;4.63;;
36797;SDS011;22748;8.426;99.512;2023-08-17T03:25:23;10.52;;;4.25;;
36797;SDS011;22748;8.426;99.512;2023-08-17T03:27:54;14.52;;;3.88;;
36797;SDS011;22748;8.426;99.512;2023-08-17T03:30:25;12.25;;;3.63;;
36797;SDS011;22748;8.426;99.512;2023-08-17T03:32:56;18.25;;;4.32;;
36797;SDS011;22748;8.426;99.512;2023-08-17T03:37:56;20.85;;;4.43;;
36797;SDS011;22748;8.426;99.512;2023-08-17T03:40:40;16.52;;;4.28;;
36797;SDS011;22748;8.426;99.512;2023-08-17T03:43:10;22.15;;;5.97;;
36797;SDS011;22748;8.426;99.512;2023-08-17T03:45:40;16.02;;;4.20;;
36797;SDS011;22748;8.426;99.512;2023-08-17T03:48:26;9.77;;;4.45;;
36797;SDS011;22748;8.426;99.512;2023-08-17T03:50:58;28.05;;;5.38;;
36797;SDS011;22748;8.426;99.512;2023-08-17T03:53:29;15.05;;;4.70;;
36797;SDS011;22748;8.426;99.512;2023-08-17T03:56:02;16.60;;;4.60;;
36797;SDS011;22748;8.426;99.512;2023-08-17T03:58:34;25.17;;;5.00;;
36797;SDS011;22748;8.426;99.512;2023-08-17T04:01:05;15.27;;;4.32;;
36797;SDS011;22748;8.426;99.512;2023-08-17T04:03:35;10.23;;;4.03;;
36797;SDS011;22748;8.426;99.512;2023-08-17T04:06:07;10.75;;;3.90;;
36797;SDS011;22748;8.426;99.512;2023-08-17T04:08:39;14.85;;;4.60;;
36797;SDS011;22748;8.426;99.512;2023-08-17T04:11:18;18.98;;;4.10;;
36797;SDS011;22748;8.426;99.512;2023-08-17T04:13:49;12.68;;;4.70;;
36797;SDS011;22748;8.426;99.512;2023-08-17T04:16:20;12.02;;;4.55;;
36797;SDS011;22748;8.426;99.512;2023-08-17T04:18:51;12.68;;;4.45;;
36797;SDS011;22748;8.426;99.512;2023-08-17T04:23:51;16.05;;;5.30;;
36797;SDS011;22748;8.426;99.512;2023-08-17T04:29:15;19.15;;;5.10;;
36797;SDS011;22748;8.426;99.512;2023-08-17T04:31:46;25.80;;;6.20;;
36797;SDS011;22748;8.426;99.512;2023-08-17T04:34:21;21.23;;;5.32;;
36797;SDS011;22748;8.426;99.512;2023-08-17T04:36:51;16.92;;;5.63;;
36797;SDS011;22748;8.426;99.512;2023-08-17T04:39:23;14.60;;;5.40;;
36797;SDS011;22748;8.426;99.512;2023-08-17T04:41:56;19.65;;;5.70;;
36797;SDS011;22748;8.426;99.512;2023-08-17T04:44:27;24.52;;;6.20;;
36797;SDS011;22748;8.426;99.512;2023-08-17T04:46:58;28.48;;;6.25;;
36797;SDS011;22748;8.426;99.512;2023-08-17T04:49:30;21.10;;;5.70;;
36797;SDS011;22748;8.426;99.512;2023-08-17T04:54:30;16.98;;;5.95;;
36797;SDS011;22748;8.426;99.512;2023-08-17T04:57:03;19.25;;;5.35;;
36797;SDS011;22748;8.426;99.512;2023-08-17T04:59:34;16.00;;;4.97;;
36797;SDS011;22748;8.426;99.512;2023-08-17T05:02:04;12.60;;;4.90;;
36797;SDS011;22748;8.426;99.512;2023-08-17T05:04:35;17.33;;;6.28;;
36797;SDS011;22748;8.426;99.512;2023-08-17T05:07:12;12.93;;;5.30;;
36797;SDS011;22748;8.426;99.512;2023-08-17T05:09:43;14.52;;;5.93;;
36797;SDS011;22748;8.426;99.512;2023-08-17T05:12:15;10.65;;;4.70;;
36797;SDS011;22748;8.426;99.512;2023-08-17T05:14:45;17.33;;;5.57;;
36797;SDS011;22748;8.426;99.512;2023-08-17T05:17:19;13.93;;;5.28;;
36797;SDS011;22748;8.426;99.512;2023-08-17T05:19:51;13.27;;;5.05;;
36797;SDS011;22748;8.426;99.512;2023-08-17T05:22:25;10.73;;;5.30;;
36797;SDS011;22748;8.426;99.512;2023-08-17T05:24:56;13.43;;;5.20;;
36797;SDS011;22748;8.426;99.512;2023-08-17T05:27:35;14.30;;;5.82;;
36797;SDS011;22748;8.426;99.512;2023-08-17T05:30:06;13.50;;;5.45;;
36797;SDS011;22748;8.426;99.512;2023-08-17T05:32:40;17.40;;;5.95;;
36797;SDS011;22748;8.426;99.512;2023-08-17T05:35:11;17.83;;;5.75;;
36797;SDS011;22748;8.426;99.512;2023-08-17T05:37:42;27.00;;;6.50;;
36797;SDS011;22748;8.426;99.512;2023-08-17T05:40:12;13.57;;;5.40;;
36797;SDS011;22748;8.426;99.512;2023-08-17T05:42:57;15.50;;;6.35;;
36797;SDS011;22748;8.426;99.512;2023-08-17T05:45:29;14.18;;;5.78;;
36797;SDS011;22748;8.426;99.512;2023-08-17T05:48:03;14.27;;;5.70;;
36797;SDS011;22748;8.426;99.512;2023-08-17T05:50:35;15.98;;;6.28;;
36797;SDS011;22748;8.426;99.512;2023-08-17T05:53:07;25.15;;;8.65;;
36797;SDS011;22748;8.426;99.512;2023-08-17T05:55:38;26.83;;;11.77;;
36797;SDS011;22748;8.426;99.512;2023-08-17T05:58:11;12.18;;;5.72;;
36797;SDS011;22748;8.426;99.512;2023-08-17T06:00:42;17.35;;;5.50;;
36797;SDS011;22748;8.426;99.512;2023-08-17T06:03:12;12.75;;;5.40;;
36797;SDS011;22748;8.426;99.512;2023-08-17T06:05:54;13.38;;;5.82;;
36797;SDS011;22748;8.426;99.512;2023-08-17T06:08:25;13.52;;;5.40;;
36797;SDS011;22748;8.426;99.512;2023-08-17T06:10:57;14.30;;;5.15;;
36797;SDS011;22748;8.426;99.512;2023-08-17T06:13:30;16.08;;;5.80;;
36797;SDS011;22748;8.426;99.512;2023-08-17T06:16:01;13.82;;;5.35;;
36797;SDS011;22748;8.426;99.512;2023-08-17T06:18:35;16.95;;;5.72;;
36797;SDS011;22748;8.426;99.512;2023-08-17T06:21:06;27.27;;;6.45;;
36797;SDS011;22748;8.426;99.512;2023-08-17T06:23:39;16.67;;;7.10;;
36797;SDS011;22748;8.426;99.512;2023-08-17T06:26:08;14.52;;;6.68;;
36797;SDS011;22748;8.426;99.512;2023-08-17T06:28:47;20.63;;;8.05;;
36797;SDS011;22748;8.426;99.512;2023-08-17T06:31:18;12.63;;;5.40;;
36797;SDS011;22748;8.426;99.512;2023-08-17T06:33:54;13.57;;;5.97;;
36797;SDS011;22748;8.426;99.512;2023-08-17T06:36:24;11.10;;;5.40;;
36797;SDS011;22748;8.426;99.512;2023-08-17T06:38:55;17.13;;;5.75;;
36797;SDS011;22748;8.426;99.512;2023-08-17T06:41:26;11.05;;;5.35;;
36797;SDS011;22748;8.426;99.512;2023-08-17T06:46:29;10.98;;;4.93;;
36797;SDS011;22748;8.426;99.512;2023-08-17T06:49:00;11.73;;;5.30;;
36797;SDS011;22748;8.426;99.512;2023-08-17T06:51:30;14.00;;;5.13;;
36797;SDS011;22748;8.426;99.512;2023-08-17T06:54:00;15.27;;;5.75;;
36797;SDS011;22748;8.426;99.512;2023-08-17T06:56:31;11.68;;;5.75;;
36797;SDS011;22748;8.426;99.512;2023-08-17T07:01:40;10.52;;;5.78;;
36797;SDS011;22748;8.426;99.512;2023-08-17T07:04:11;12.93;;;6.13;;
36797;SDS011;22748;8.426;99.512;2023-08-17T07:06:53;15.02;;;6.35;;
36797;SDS011;22748;8.426;99.512;2023-08-17T07:09:26;26.33;;;7.45;;
36797;SDS011;22748;8.426;99.512;2023-08-17T07:11:59;14.48;;;6.55;;
36797;SDS011;22748;8.426;99.512;2023-08-17T07:14:34;15.50;;;5.63;;
36797;SDS011;22748;8.426;99.512;2023-08-17T07:17:06;10.95;;;6.10;;
36797;SDS011;22748;8.426;99.512;2023-08-17T07:19:42;16.77;;;6.60;;
36797;SDS011;22748;8.426;99.512;2023-08-17T07:22:13;25.52;;;7.43;;
36797;SDS011;22748;8.426;99.512;2023-08-17T07:24:44;13.38;;;5.45;;
36797;SDS011;22748;8.426;99.512;2023-08-17T07:27:18;10.40;;;4.95;;
36797;SDS011;22748;8.426;99.512;2023-08-17T07:29:59;12.20;;;5.38;;
36797;SDS011;22748;8.426;99.512;2023-08-17T07:32:30;14.00;;;5.68;;
36797;SDS011;22748;8.426;99.512;2023-08-17T07:35:01;26.98;;;6.82;;
36797;SDS011;22748;8.426;99.512;2023-08-17T07:37:32;22.08;;;7.07;;
36797;SDS011;22748;8.426;99.512;2023-08-17T07:42:32;17.73;;;6.30;;
36797;SDS011;22748;8.426;99.512;2023-08-17T07:45:06;16.45;;;5.82;;
36797;SDS011;22748;8.426;99.512;2023-08-17T07:47:37;13.20;;;5.15;;
36797;SDS011;22748;8.426;99.512;2023-08-17T07:50:13;12.60;;;5.07;;
36797;SDS011;22748;8.426;99.512;2023-08-17T07:52:47;14.05;;;4.60;;
36797;SDS011;22748;8.426;99.512;2023-08-17T07:55:30;18.95;;;5.85;;
36797;SDS011;22748;8.426;99.512;2023-08-17T07:58:02;14.02;;;4.95;;
36797;SDS011;22748;8.426;99.512;2023-08-17T08:00:45;17.20;;;5.18;;
36797;SDS011;22748;8.426;99.512;2023-08-17T08:03:18;20.17;;;5.25;;
36797;SDS011;22748;8.426;99.512;2023-08-17T08:05:50;20.08;;;5.32;;
36797;SDS011;22748;8.426;99.512;2023-08-17T08:08:30;10.02;;;4.30;;
36797;SDS011;22748;8.426;99.512;2023-08-17T08:11:01;13.75;;;5.47;;
36797;SDS011;22748;8.426;99.512;2023-08-17T08:13:35;12.25;;;4.82;;
36797;SDS011;22748;8.426;99.512;2023-08-17T08:16:08;20.02;;;6.07;;
36797;SDS011;22748;8.426;99.512;2023-08-17T08:18:38;14.25;;;7.15;;
36797;SDS011;22748;8.426;99.512;2023-08-17T08:21:10;12.70;;;4.90;;
36797;SDS011;22748;8.426;99.512;2023-08-17T08:23:40;12.52;;;4.90;;
36797;SDS011;22748;8.426;99.512;2023-08-17T08:26:13;11.13;;;4.72;;
36797;SDS011;22748;8.426;99.512;2023-08-17T08:28:45;13.30;;;5.25;;
36797;SDS011;22748;8.426;99.512;2023-08-17T08:31:17;11.15;;;4.80;;
36797;SDS011;22748;8.426;99.512;2023-08-17T08:33:48;14.75;;;4.93;;
36797;SDS011;22748;8.426;99.512;2023-08-17T08:36:19;20.70;;;8.98;;
36797;SDS011;22748;8.426;99.512;2023-08-17T08:38:50;11.85;;;5.45;;
36797;SDS011;22748;8.426;99.512;2023-08-17T08:41:27;13.93;;;5.68;;
36797;SDS011;22748;8.426;99.512;2023-08-17T08:44:00;8.80;;;5.05;;
36797;SDS011;22748;8.426;99.512;2023-08-17T08:46:33;13.52;;;4.68;;
36797;SDS011;22748;8.426;99.512;2023-08-17T08:49:07;13.93;;;4.70;;
36797;SDS011;22748;8.426;99.512;2023-08-17T08:51:49;18.73;;;5.45;;
36797;SDS011;22748;8.426;99.512;2023-08-17T08:54:22;12.13;;;5.55;;
36797;SDS011;22748;8.426;99.512;2023-08-17T08:57:03;13.52;;;6.47;;
36797;SDS011;22748;8.426;99.512;2023-08-17T08:59:38;14.23;;;7.25;;
36797;SDS011;22748;8.426;99.512;2023-08-17T09:02:18;14.20;;;5.88;;
36797;SDS011;22748;8.426;99.512;2023-08-17T09:04:55;15.25;;;6.50;;
36797;SDS011;22748;8.426;99.512;2023-08-17T09:07:27;22.27;;;6.10;;
36797;SDS011;22748;8.426;99.512;2023-08-17T09:10:05;18.35;;;4.95;;
36797;SDS011;22748;8.426;99.512;2023-08-17T09:12:39;10.98;;;4.15;;
36797;SDS011;22748;8.426;99.512;2023-08-17T09:15:14;11.35;;;4.40;;
36797;SDS011;22748;8.426;99.512;2023-08-17T09:17:59;14.48;;;6.38;;
36797;SDS011;22748;8.426;99.512;2023-08-17T09:23:18;14.95;;;6.25;;
36797;SDS011;22748;8.426;99.512;2023-08-17T09:25:55;17.95;;;5.88;;
36797;SDS011;22748;8.426;99.512;2023-08-17T09:28:26;14.82;;;5.95;;
36797;SDS011;22748;8.426;99.512;2023-08-17T09:30:57;11.82;;;7.07;;
36797;SDS011;22748;8.426;99.512;2023-08-17T09:33:31;13.80;;;6.97;;
36797;SDS011;22748;8.426;99.512;2023-08-17T09:36:02;13.88;;;7.10;;
36797;SDS011;22748;8.426;99.512;2023-08-17T09:38:34;14.18;;;6.28;;
36797;SDS011;22748;8.426;99.512;2023-08-17T09:41:07;11.25;;;6.00;;
36797;SDS011;22748;8.426;99.512;2023-08-17T09:43:40;14.93;;;8.23;;
36797;SDS011;22748;8.426;99.512;2023-08-17T09:46:11;16.05;;;8.90;;
36797;SDS011;22748;8.426;99.512;2023-08-17T09:48:45;14.05;;;6.03;;
36797;SDS011;22748;8.426;99.512;2023-08-17T09:51:17;9.65;;;5.00;;
36797;SDS011;22748;8.426;99.512;2023-08-17T09:53:51;13.47;;;5.40;;
36797;SDS011;22748;8.426;99.512;2023-08-17T09:56:23;14.80;;;5.60;;
36797;SDS011;22748;8.426;99.512;2023-08-17T09:58:55;13.13;;;5.53;;
36797;SDS011;22748;8.426;99.512;2023-08-17T10:01:26;12.27;;;5.63;;
36797;SDS011;22748;8.426;99.512;2023-08-17T10:04:03;12.02;;;5.35;;
36797;SDS011;22748;8.426;99.512;2023-08-17T10:06:40;13.50;;;5.13;;
36797;SDS011;22748;8.426;99.512;2023-08-17T10:09:11;13.48;;;5.85;;
36797;SDS011;22748;8.426;99.512;2023-08-17T10:11:46;11.05;;;4.20;;
36797;SDS011;22748;8.426;99.512;2023-08-17T10:14:23;13.05;;;7.65;;
36797;SDS011;22748;8.426;99.512;2023-08-17T10:17:04;17.40;;;6.25;;
36797;SDS011;22748;8.426;99.512;2023-08-17T10:19:47;18.42;;;7.05;;
36797;SDS011;22748;8.426;99.512;2023-08-17T10:22:23;14.63;;;5.78;;
36797;SDS011;22748;8.426;99.512;2023-08-17T10:25:00;10.88;;;4.60;;
36797;SDS011;22748;8.426;99.512;2023-08-17T10:27:33;9.90;;;4.38;;
36797;SDS011;22748;8.426;99.512;2023-08-17T10:30:05;11.95;;;5.30;;
36797;SDS011;22748;8.426;99.512;2023-08-17T10:32:52;15.43;;;6.15;;
36797;SDS011;22748;8.426;99.512;2023-08-17T10:35:24;12.30;;;5.15;;
36797;SDS011;22748;8.426;99.512;2023-08-17T10:37:55;17.35;;;5.05;;
36797;SDS011;22748;8.426;99.512;2023-08-17T10:40:28;16.40;;;7.05;;
36797;SDS011;22748;8.426;99.512;2023-08-17T10:43:06;16.95;;;5.40;;
36797;SDS011;22748;8.426;99.512;2023-08-17T10:45:50;18.00;;;5.20;;
36797;SDS011;22748;8.426;99.512;2023-08-17T10:48:35;12.55;;;4.90;;
36797;SDS011;22748;8.426;99.512;2023-08-17T10:51:08;10.25;;;4.53;;
36797;SDS011;22748;8.426;99.512;2023-08-17T10:53:46;15.73;;;5.35;;
36797;SDS011;22748;8.426;99.512;2023-08-17T10:56:24;13.70;;;5.68;;
36797;SDS011;22748;8.426;99.512;2023-08-17T10:58:59;12.50;;;5.25;;
36797;SDS011;22748;8.426;99.512;2023-08-17T11:01:33;10.75;;;4.25;;
36797;SDS011;22748;8.426;99.512;2023-08-17T11:04:19;10.93;;;4.28;;
36797;SDS011;22748;8.426;99.512;2023-08-17T11:07:03;11.45;;;4.32;;
36797;SDS011;22748;8.426;99.512;2023-08-17T11:09:46;13.98;;;4.60;;
36797;SDS011;22748;8.426;99.512;2023-08-17T11:15:06;20.80;;;6.30;;
36797;SDS011;22748;8.426;99.512;2023-08-17T11:17:38;18.50;;;6.18;;
36797;SDS011;22748;8.426;99.512;2023-08-17T11:20:09;13.65;;;6.10;;
36797;SDS011;22748;8.426;99.512;2023-08-17T11:22:42;13.40;;;5.82;;
36797;SDS011;22748;8.426;99.512;2023-08-17T11:25:14;14.57;;;5.05;;
36797;SDS011;22748;8.426;99.512;2023-08-17T11:27:46;17.45;;;7.03;;
36797;SDS011;22748;8.426;99.512;2023-08-17T11:30:16;9.40;;;5.72;;
36797;SDS011;22748;8.426;99.512;2023-08-17T11:32:47;26.17;;;10.37;;
36797;SDS011;22748;8.426;99.512;2023-08-17T11:35:17;17.77;;;7.35;;
36797;SDS011;22748;8.426;99.512;2023-08-17T11:37:49;23.92;;;7.38;;
36797;SDS011;22748;8.426;99.512;2023-08-17T11:40:22;12.68;;;6.78;;
36797;SDS011;22748;8.426;99.512;2023-08-17T11:42:58;17.02;;;6.38;;
36797;SDS011;22748;8.426;99.512;2023-08-17T11:45:29;15.40;;;5.80;;
36797;SDS011;22748;8.426;99.512;2023-08-17T11:48:01;13.23;;;5.70;;
36797;SDS011;22748;8.426;99.512;2023-08-17T11:50:32;10.07;;;5.57;;
36797;SDS011;22748;8.426;99.512;2023-08-17T11:53:05;11.80;;;5.72;;
36797;SDS011;22748;8.426;99.512;2023-08-17T11:55:35;10.75;;;5.93;;
36797;SDS011;22748;8.426;99.512;2023-08-17T11:58:06;13.23;;;6.07;;
36797;SDS011;22748;8.426;99.512;2023-08-17T12:00:36;12.43;;;6.55;;
36797;SDS011;22748;8.426;99.512;2023-08-17T12:03:09;12.27;;;6.00;;
36797;SDS011;22748;8.426;99.512;2023-08-17T12:05:43;14.40;;;7.72;;
36797;SDS011;22748;8.426;99.512;2023-08-17T12:08:17;13.38;;;7.57;;
36797;SDS011;22748;8.426;99.512;2023-08-17T12:10:49;11.43;;;6.00;;
36797;SDS011;22748;8.426;99.512;2023-08-17T12:13:30;11.25;;;6.00;;
36797;SDS011;22748;8.426;99.512;2023-08-17T12:16:14;15.02;;;6.97;;
36797;SDS011;22748;8.426;99.512;2023-08-17T12:18:47;15.68;;;7.68;;
36797;SDS011;22748;8.426;99.512;2023-08-17T12:21:20;16.30;;;7.60;;
36797;SDS011;22748;8.426;99.512;2023-08-17T12:23:52;15.55;;;7.95;;
36797;SDS011;22748;8.426;99.512;2023-08-17T12:26:24;17.27;;;8.07;;
36797;SDS011;22748;8.426;99.512;2023-08-17T12:28:55;16.25;;;7.35;;
36797;SDS011;22748;8.426;99.512;2023-08-17T12:31:28;16.85;;;7.60;;
36797;SDS011;22748;8.426;99.512;2023-08-17T12:33:59;12.55;;;6.65;;
36797;SDS011;22748;8.426;99.512;2023-08-17T12:36:30;13.20;;;6.65;;
36797;SDS011;22748;8.426;99.512;2023-08-17T12:39:03;16.92;;;7.40;;
36797;SDS011;22748;8.426;99.512;2023-08-17T12:41:34;15.70;;;7.30;;
36797;SDS011;22748;8.426;99.512;2023-08-17T12:44:05;14.02;;;7.57;;
36797;SDS011;22748;8.426;99.512;2023-08-17T12:46:36;19.50;;;8.02;;
36797;SDS011;22748;8.426;99.512;2023-08-17T12:49:07;15.95;;;7.60;;
36797;SDS011;22748;8.426;99.512;2023-08-17T12:54:08;15.75;;;6.65;;
36797;SDS011;22748;8.426;99.512;2023-08-17T12:56:39;14.23;;;6.93;;
36797;SDS011;22748;8.426;99.512;2023-08-17T13:01:41;10.95;;;6.25;;
36797;SDS011;22748;8.426;99.512;2023-08-17T13:04:12;13.38;;;6.97;;
36797;SDS011;22748;8.426;99.512;2023-08-17T13:06:44;15.50;;;6.93;;
36797;SDS011;22748;8.426;99.512;2023-08-17T13:11:46;16.27;;;7.15;;
36797;SDS011;22748;8.426;99.512;2023-08-17T13:14:17;18.73;;;7.03;;
36797;SDS011;22748;8.426;99.512;2023-08-17T13:16:49;20.55;;;7.47;;
36797;SDS011;22748;8.426;99.512;2023-08-17T13:19:20;21.88;;;7.95;;
36797;SDS011;22748;8.426;99.512;2023-08-17T13:24:22;25.90;;;9.35;;
36797;SDS011;22748;8.426;99.512;2023-08-17T13:26:52;20.27;;;9.57;;
36797;SDS011;22748;8.426;99.512;2023-08-17T13:29:24;24.70;;;9.32;;
36797;SDS011;22748;8.426;99.512;2023-08-17T13:31:56;25.13;;;7.93;;
36797;SDS011;22748;8.426;99.512;2023-08-17T13:34:27;22.73;;;8.40;;
36797;SDS011;22748;8.426;99.512;2023-08-17T13:36:57;17.67;;;7.55;;
36797;SDS011;22748;8.426;99.512;2023-08-17T13:39:33;18.08;;;8.10;;
36797;SDS011;22748;8.426;99.512;2023-08-17T13:42:05;26.05;;;9.48;;
36797;SDS011;22748;8.426;99.512;2023-08-17T13:44:36;26.13;;;9.32;;
36797;SDS011;22748;8.426;99.512;2023-08-17T13:49:37;22.00;;;8.70;;
36797;SDS011;22748;8.426;99.512;2023-08-17T13:52:07;21.10;;;8.15;;
36797;SDS011;22748;8.426;99.512;2023-08-17T13:54:40;21.08;;;8.55;;
36797;SDS011;22748;8.426;99.512;2023-08-17T13:57:12;20.83;;;9.27;;
36797;SDS011;22748;8.426;99.512;2023-08-17T14:02:13;22.92;;;9.55;;
36797;SDS011;22748;8.426;99.512;2023-08-17T14:04:44;23.73;;;9.82;;
36797;SDS011;22748;8.426;99.512;2023-08-17T14:09:47;18.25;;;8.90;;
36797;SDS011;22748;8.426;99.512;2023-08-17T14:12:17;13.98;;;8.55;;
36797;SDS011;22748;8.426;99.512;2023-08-17T14:14:47;19.83;;;8.70;;
36797;SDS011;22748;8.426;99.512;2023-08-17T14:17:17;22.30;;;8.50;;
36797;SDS011;22748;8.426;99.512;2023-08-17T14:19:47;20.00;;;8.30;;
36797;SDS011;22748;8.426;99.512;2023-08-17T14:22:17;20.02;;;7.70;;
36797;SDS011;22748;8.426;99.512;2023-08-17T14:24:51;16.20;;;7.47;;
36797;SDS011;22748;8.426;99.512;2023-08-17T14:27:23;19.85;;;7.43;;
36797;SDS011;22748;8.426;99.512;2023-08-17T14:29:54;20.10;;;7.40;;
36797;SDS011;22748;8.426;99.512;2023-08-17T14:32:28;13.02;;;7.25;;
36797;SDS011;22748;8.426;99.512;2023-08-17T14:35:00;14.88;;;7.68;;
36797;SDS011;22748;8.426;99.512;2023-08-17T14:37:33;17.17;;;7.95;;
36797;SDS011;22748;8.426;99.512;2023-08-17T14:40:06;17.27;;;7.73;;
36797;SDS011;22748;8.426;99.512;2023-08-17T14:42:37;21.88;;;8.32;;
36797;SDS011;22748;8.426;99.512;2023-08-17T14:45:09;16.13;;;8.60;;
36797;SDS011;22748;8.426;99.512;2023-08-17T14:47:41;15.63;;;8.05;;
36797;SDS011;22748;8.426;99.512;2023-08-17T14:50:11;15.65;;;8.82;;
36797;SDS011;22748;8.426;99.512;2023-08-17T14:52:44;17.63;;;8.98;;
36797;SDS011;22748;8.426;99.512;2023-08-17T14:57:45;20.95;;;10.95;;
36797;SDS011;22748;8.426;99.512;2023-08-17T15:00:17;19.23;;;10.97;;
36797;SDS011;22748;8.426;99.512;2023-08-17T15:05:18;17.90;;;10.05;;
36797;SDS011;22748;8.426;99.512;2023-08-17T15:07:48;16.52;;;9.60;;
36797;SDS011;22748;8.426;99.512;2023-08-17T15:10:21;21.20;;;9.73;;
36797;SDS011;22748;8.426;99.512;2023-08-17T15:12:52;21.88;;;9.98;;
36797;SDS011;22748;8.426;99.512;2023-08-17T15:17:52;15.63;;;9.18;;
36797;SDS011;22748;8.426;99.512;2023-08-17T15:20:27;18.38;;;8.68;;
36797;SDS011;22748;8.426;99.512;2023-08-17T15:25:30;26.88;;;12.80;;
36797;SDS011;22748;8.426;99.512;2023-08-17T15:28:01;24.65;;;12.90;;
36797;SDS011;22748;8.426;99.512;2023-08-17T15:30:35;24.48;;;12.18;;
36797;SDS011;22748;8.426;99.512;2023-08-17T15:35:36;24.40;;;12.55;;
36797;SDS011;22748;8.426;99.512;2023-08-17T15:40:38;24.30;;;12.40;;
36797;SDS011;22748;8.426;99.512;2023-08-17T15:43:09;18.13;;;11.23;;
36797;SDS011;22748;8.426;99.512;2023-08-17T15:45:40;18.13;;;9.75;;
36797;SDS011;22748;8.426;99.512;2023-08-17T15:48:12;16.08;;;9.30;;
36797;SDS011;22748;8.426;99.512;2023-08-17T15:50:43;17.85;;;10.60;;
36797;SDS011;22748;8.426;99.512;2023-08-17T15:53:14;24.65;;;11.18;;
36797;SDS011;22748;8.426;99.512;2023-08-17T15:55:47;23.58;;;10.30;;
36797;SDS011;22748;8.426;99.512;2023-08-17T15:58:18;20.88;;;9.73;;
36797;SDS011;22748;8.426;99.512;2023-08-17T16:00:49;20.58;;;9.25;;
36797;SDS011;22748;8.426;99.512;2023-08-17T16:03:19;14.15;;;8.55;;
36797;SDS011;22748;8.426;99.512;2023-08-17T16:05:50;22.73;;;10.18;;
36797;SDS011;22748;8.426;99.512;2023-08-17T16:08:21;15.23;;;8.43;;
36797;SDS011;22748;8.426;99.512;2023-08-17T16:10:54;18.15;;;9.50;;
36797;SDS011;22748;8.426;99.512;2023-08-17T16:13:24;15.75;;;9.07;;
36797;SDS011;22748;8.426;99.512;2023-08-17T16:15:58;18.58;;;9.45;;
36797;SDS011;22748;8.426;99.512;2023-08-17T16:18:28;15.10;;;8.65;;
36797;SDS011;22748;8.426;99.512;2023-08-17T16:21:01;18.88;;;8.40;;
36797;SDS011;22748;8.426;99.512;2023-08-17T16:23:32;19.38;;;9.23;;
36797;SDS011;22748;8.426;99.512;2023-08-17T16:26:05;12.50;;;8.27;;